Time;durP1;ratioP1;P1;durP2;ratioP2;P2;SDS_P1;SDS_P2;PMS_P1;PMS_P2;Temp;Humidity;BMP_temperature;BMP_pressure;BME280_temperature;BME280_humidity;BME280_pressure;Samples;Min_cycle;Max_cycle;Signal;HPM_P1;HPM_P2
2024/03/22 00:01:46;;;;;;;5.70;4.13;;;8.30;99.90;;;;;;5052060;28;20242;-75
2024/03/22 00:04:12;;;;;;;6.05;4.38;;;8.20;99.90;;;;;;5052316;28;20224;-76
2024/03/22 00:06:39;;;;;;;5.53;4.53;;;8.20;99.90;;;;;;5052349;28;20643;-75
2024/03/22 00:09:05;;;;;;;5.80;3.90;;;8.10;99.90;;;;;;5052663;28;20207;-76
2024/03/22 00:11:33;;;;;;;6.03;4.30;;;8.00;99.90;;;;;;5051809;28;20215;-75
2024/03/22 00:13:59;;;;;;;5.53;4.20;;;7.90;99.90;;;;;;5052632;28;20208;-75
2024/03/22 00:16:26;;;;;;;5.47;4.03;;;7.90;99.90;;;;;;5037328;28;20216;-75
2024/03/22 00:18:51;;;;;;;5.38;3.63;;;7.80;99.90;;;;;;5031929;28;20560;-76
2024/03/22 00:21:18;;;;;;;5.77;4.20;;;7.70;99.90;;;;;;5032209;28;20214;-75
2024/03/22 00:23:45;;;;;;;6.95;4.82;;;7.70;99.90;;;;;;5031672;28;20714;-75
2024/03/22 00:26:12;;;;;;;9.45;4.30;;;7.60;99.90;;;;;;5029037;28;20712;-75
2024/03/22 00:28:39;;;;;;;7.55;4.05;;;7.60;99.90;;;;;;5034805;28;20608;-75
2024/03/22 00:31:06;;;;;;;5.65;4.85;;;7.50;99.90;;;;;;5031619;28;20634;-75
2024/03/22 00:33:31;;;;;;;7.40;4.75;;;7.50;99.90;;;;;;5031283;28;20224;-75
2024/03/22 00:35:58;;;;;;;5.27;4.07;;;7.50;99.90;;;;;;5031865;28;20219;-75
2024/03/22 00:38:24;;;;;;;7.03;4.38;;;7.40;99.90;;;;;;5031874;28;20218;-75
2024/03/22 00:40:51;;;;;;;6.20;4.80;;;7.40;99.90;;;;;;5031511;28;20215;-75
2024/03/22 00:43:17;;;;;;;4.15;3.72;;;7.30;99.90;;;;;;5031426;28;20495;-75
2024/03/22 00:45:45;;;;;;;7.57;3.93;;;7.30;99.90;;;;;;5029949;28;20209;-75
2024/03/22 00:48:10;;;;;;;5.15;4.10;;;7.30;99.90;;;;;;5029958;28;20215;-76
2024/03/22 00:50:37;;;;;;;6.83;4.67;;;7.20;99.90;;;;;;5029514;28;20200;-75
2024/03/22 00:53:05;;;;;;;6.88;5.18;;;7.20;99.90;;;;;;5029773;28;20237;-75
2024/03/22 00:55:32;;;;;;;7.32;5.18;;;7.20;99.90;;;;;;5029735;28;20235;-76
2024/03/22 00:57:58;;;;;;;5.18;4.43;;;7.10;99.90;;;;;;5029808;28;20709;-76
2024/03/22 01:00:25;;;;;;;9.10;4.57;;;7.10;99.90;;;;;;5031006;28;20283;-76
2024/03/22 01:02:52;;;;;;;6.95;5.55;;;7.00;99.90;;;;;;5025315;28;20236;-76
2024/03/22 01:05:19;;;;;;;7.00;4.80;;;7.00;99.90;;;;;;5051377;28;20956;-76
2024/03/22 01:07:45;;;;;;;5.25;4.72;;;6.90;99.90;;;;;;5051373;28;20213;-76
2024/03/22 01:10:12;;;;;;;5.33;4.83;;;6.90;99.90;;;;;;5051286;28;20289;-76
2024/03/22 01:12:38;;;;;;;8.20;4.50;;;6.80;99.90;;;;;;5050848;28;20707;-75
2024/03/22 01:15:06;;;;;;;7.00;5.38;;;6.80;99.90;;;;;;5039226;28;20202;-76
2024/03/22 01:17:32;;;;;;;6.68;5.43;;;6.70;99.90;;;;;;5031204;28;20211;-75
2024/03/22 01:20:00;;;;;;;5.50;4.67;;;6.70;99.90;;;;;;5031182;28;20686;-76
2024/03/22 01:22:26;;;;;;;9.13;5.32;;;6.70;99.90;;;;;;5030868;28;20489;-75
2024/03/22 01:24:53;;;;;;;8.30;4.90;;;6.60;99.90;;;;;;5031256;28;20236;-75
2024/03/22 01:27:19;;;;;;;8.48;5.93;;;6.60;99.90;;;;;;5031496;28;20205;-75
2024/03/22 01:29:46;;;;;;;6.70;4.63;;;6.60;99.90;;;;;;5031012;28;20233;-75
2024/03/22 01:32:12;;;;;;;7.32;5.07;;;6.50;99.90;;;;;;5030885;28;20295;-75
2024/03/22 01:34:39;;;;;;;7.60;4.93;;;6.50;99.90;;;;;;5031061;28;20194;-75
2024/03/22 01:37:06;;;;;;;5.90;5.05;;;6.50;99.90;;;;;;5023253;28;20576;-75
2024/03/22 01:39:33;;;;;;;5.50;4.00;;;6.40;99.90;;;;;;5031106;28;20207;-75
2024/03/22 01:41:59;;;;;;;7.13;4.60;;;6.40;99.90;;;;;;5030673;28;20605;-75
2024/03/22 01:44:28;;;;;;;6.30;4.97;;;6.40;99.90;;;;;;5031497;28;20222;-75
2024/03/22 01:46:54;;;;;;;7.30;4.85;;;6.40;99.90;;;;;;5038001;28;20201;-75
2024/03/22 01:49:22;;;;;;;9.15;5.45;;;6.30;99.90;;;;;;5055139;28;20213;-75
2024/03/22 01:51:48;;;;;;;7.00;5.22;;;6.30;99.90;;;;;;5054314;28;20236;-75
2024/03/22 01:54:17;;;;;;;11.98;5.63;;;6.20;99.90;;;;;;5054982;28;20245;-75
2024/03/22 01:56:43;;;;;;;7.13;5.13;;;6.20;99.90;;;;;;5054786;28;20709;-75
2024/03/22 01:59:10;;;;;;;7.97;5.20;;;6.20;99.90;;;;;;5054979;28;20201;-75
2024/03/22 02:01:36;;;;;;;7.68;5.25;;;6.20;99.90;;;;;;5054087;28;20876;-75
2024/03/22 02:04:03;;;;;;;8.57;4.57;;;6.20;99.90;;;;;;5054855;28;20229;-75
2024/03/22 02:06:28;;;;;;;9.40;4.57;;;6.20;99.90;;;;;;5054893;28;20209;-75
2024/03/22 02:08:56;;;;;;;6.93;5.20;;;6.10;99.90;;;;;;5043636;28;20213;-75
2024/03/22 02:11:23;;;;;;;5.65;4.70;;;6.10;99.90;;;;;;5034503;28;20215;-75
2024/03/22 02:13:49;;;;;;;8.93;4.82;;;6.10;99.90;;;;;;5034184;28;20248;-75
2024/03/22 02:16:15;;;;;;;5.00;4.15;;;6.10;99.90;;;;;;5034788;28;20206;-75
2024/03/22 02:18:42;;;;;;;8.85;4.03;;;6.10;99.90;;;;;;5034275;28;20655;-75
2024/03/22 02:21:08;;;;;;;6.18;4.60;;;6.10;99.90;;;;;;5034439;28;20641;-75
2024/03/22 02:23:37;;;;;;;7.57;4.70;;;6.00;99.90;;;;;;5034126;28;20240;-74
2024/03/22 02:26:04;;;;;;;6.53;5.00;;;5.90;99.90;;;;;;5034540;28;20463;-75
2024/03/22 02:28:31;;;;;;;6.10;4.70;;;5.80;99.90;;;;;;5034462;28;20203;-75
2024/03/22 02:30:58;;;;;;;7.20;5.28;;;5.80;99.90;;;;;;5031148;28;20647;-75
2024/03/22 02:33:24;;;;;;;7.55;5.78;;;5.80;99.90;;;;;;5029164;28;20222;-75
2024/03/22 02:35:50;;;;;;;9.52;5.13;;;5.80;99.90;;;;;;5034146;28;20693;-75
2024/03/22 02:38:17;;;;;;;6.53;5.87;;;5.70;99.90;;;;;;5031939;28;20205;-75
2024/03/22 02:40:45;;;;;;;6.40;4.95;;;5.70;99.90;;;;;;5053731;28;20572;-75
2024/03/22 02:43:12;;;;;;;7.07;4.65;;;5.80;99.90;;;;;;5040760;28;20234;-75
2024/03/22 02:45:38;;;;;;;5.55;4.93;;;5.70;99.90;;;;;;5033924;28;20240;-75
2024/03/22 02:48:06;;;;;;;7.73;5.07;;;5.70;99.90;;;;;;5034145;28;20201;-75
2024/03/22 02:50:33;;;;;;;10.23;4.75;;;5.60;99.90;;;;;;5033878;28;20470;-75
2024/03/22 02:52:59;;;;;;;7.43;6.18;;;5.60;99.90;;;;;;5033742;28;20229;-75
2024/03/22 02:55:25;;;;;;;4.45;4.05;;;5.60;99.90;;;;;;5033860;28;20210;-75
2024/03/22 02:57:53;;;;;;;6.53;5.00;;;5.60;99.90;;;;;;5033663;28;20225;-75
2024/03/22 03:00:19;;;;;;;8.00;5.85;;;5.60;99.90;;;;;;5033797;28;20464;-75
2024/03/22 03:02:46;;;;;;;6.83;4.17;;;5.60;99.90;;;;;;5033187;28;20222;-75
2024/03/22 03:05:12;;;;;;;7.90;5.43;;;5.60;99.90;;;;;;5033719;28;20500;-75
2024/03/22 03:07:40;;;;;;;8.87;5.17;;;5.60;99.90;;;;;;5033574;28;20210;-76
2024/03/22 03:10:06;;;;;;;6.47;5.20;;;5.60;99.90;;;;;;5033501;28;20633;-74
2024/03/22 03:12:33;;;;;;;8.15;5.32;;;5.60;99.90;;;;;;5033241;28;20248;-75
2024/03/22 03:15:00;;;;;;;4.70;4.07;;;5.70;99.90;;;;;;5033553;28;20198;-75
2024/03/22 03:17:27;;;;;;;7.07;4.18;;;5.70;99.90;;;;;;5026621;28;20291;-74
2024/03/22 03:19:53;;;;;;;8.23;5.28;;;5.70;99.90;;;;;;5050874;28;20201;-75
2024/03/22 03:22:19;;;;;;;6.00;5.23;;;5.80;99.90;;;;;;5052985;28;20605;-75
2024/03/22 03:24:45;;;;;;;6.25;5.55;;;5.90;99.90;;;;;;5052998;28;20592;-75
2024/03/22 03:27:12;;;;;;;6.00;4.97;;;6.10;99.90;;;;;;5053314;28;20205;-75
2024/03/22 03:29:37;;;;;;;9.13;6.05;;;6.30;99.90;;;;;;5052990;28;20218;-76
2024/03/22 03:32:06;;;;;;;6.70;5.10;;;6.50;99.90;;;;;;5052874;28;20601;-75
2024/03/22 03:34:31;;;;;;;5.80;5.18;;;6.70;99.90;;;;;;5053067;28;20205;-75
2024/03/22 03:37:00;;;;;;;7.60;5.00;;;6.90;99.90;;;;;;5053072;28;20208;-75
2024/03/22 03:39:26;;;;;;;7.70;5.65;;;7.00;99.90;;;;;;5053019;28;20206;-75
2024/03/22 03:41:53;;;;;;;7.87;5.83;;;7.10;99.90;;;;;;5052276;28;20228;-74
2024/03/22 03:44:18;;;;;;;5.38;4.85;;;7.20;99.90;;;;;;5053040;28;20490;-75
2024/03/22 03:46:45;;;;;;;7.07;5.10;;;7.30;99.90;;;;;;5052679;28;20675;-74
2024/03/22 03:49:12;;;;;;;5.90;5.30;;;7.30;99.90;;;;;;5052870;28;20620;-74
2024/03/22 03:51:39;;;;;;;6.60;4.97;;;7.30;99.90;;;;;;5051965;28;20732;-75
2024/03/22 03:54:05;;;;;;;7.45;5.50;;;7.30;99.90;;;;;;5052414;28;20220;-75
2024/03/22 03:56:31;;;;;;;8.37;5.73;;;7.30;99.90;;;;;;5030691;28;20196;-75
2024/03/22 03:58:57;;;;;;;5.75;4.57;;;7.40;99.90;;;;;;5026147;28;20208;-75
2024/03/22 04:01:24;;;;;;;6.00;4.97;;;7.40;99.90;;;;;;5024571;28;20598;-76
2024/03/22 04:03:50;;;;;;;9.85;4.80;;;7.40;99.90;;;;;;5026673;28;20198;-74
2024/03/22 04:06:18;;;;;;;5.83;4.77;;;7.30;99.90;;;;;;5024027;28;20195;-74
2024/03/22 04:08:43;;;;;;;6.63;4.65;;;7.30;99.90;;;;;;5030373;28;20210;-74
2024/03/22 04:11:11;;;;;;;7.40;5.13;;;7.30;99.90;;;;;;5038018;28;20212;-74
2024/03/22 04:13:37;;;;;;;6.03;4.03;;;7.30;99.90;;;;;;5043508;28;20234;-75
2024/03/22 04:16:04;;;;;;;5.20;4.20;;;7.30;99.90;;;;;;5028101;28;20207;-74
2024/03/22 04:18:30;;;;;;;5.63;5.00;;;7.30;99.90;;;;;;5052394;28;20477;-75
2024/03/22 04:20:59;;;;;;;4.80;4.27;;;7.30;99.90;;;;;;5040931;28;20207;-75
2024/03/22 04:23:26;;;;;;;6.15;4.60;;;7.30;99.90;;;;;;5030769;28;20293;-74
2024/03/22 04:25:55;;;;;;;8.55;6.00;;;7.30;99.90;;;;;;5048714;28;20513;-72
2024/03/22 04:28:21;;;;;;;9.43;5.80;;;7.30;99.90;;;;;;5032328;28;20208;-73
2024/03/22 04:30:56;;;;;;;6.78;4.85;;;7.40;99.90;;;;;;5031867;28;20615;-73
2024/03/22 04:33:22;;;;;;;6.30;5.07;;;7.50;99.90;;;;;;5025595;28;20249;-73
2024/03/22 04:35:49;;;;;;;6.67;5.67;;;7.50;99.90;;;;;;5038350;28;20204;-73
2024/03/22 04:38:15;;;;;;;5.85;4.82;;;7.50;99.90;;;;;;5031968;28;20215;-73
2024/03/22 04:40:43;;;;;;;5.50;4.55;;;7.50;99.90;;;;;;5031595;28;20293;-73
2024/03/22 04:43:10;;;;;;;5.30;4.20;;;7.60;99.90;;;;;;5031460;28;20230;-73
2024/03/22 04:45:37;;;;;;;4.93;4.43;;;7.60;99.90;;;;;;5031705;28;20229;-73
2024/03/22 04:48:04;;;;;;;4.63;4.15;;;7.70;99.90;;;;;;5031561;28;20204;-73
2024/03/22 04:50:31;;;;;;;7.55;5.15;;;7.80;99.90;;;;;;5031560;28;20205;-73
2024/03/22 04:52:57;;;;;;;6.43;5.32;;;7.80;99.90;;;;;;5031113;28;20228;-73
2024/03/22 04:55:23;;;;;;;6.53;5.40;;;7.90;99.90;;;;;;5031763;28;20228;-73
2024/03/22 04:57:52;;;;;;;6.90;4.72;;;7.90;99.90;;;;;;5031473;28;20681;-73
2024/03/22 05:00:19;;;;;;;6.90;4.35;;;8.00;99.90;;;;;;5031384;28;20208;-73
2024/03/22 05:02:45;;;;;;;6.78;4.50;;;8.10;99.90;;;;;;5031030;28;20232;-73
2024/03/22 05:05:12;;;;;;;7.20;4.97;;;8.10;99.90;;;;;;5031404;28;20622;-72
2024/03/22 05:07:38;;;;;;;8.27;5.50;;;8.20;99.90;;;;;;5031345;28;20475;-72
2024/03/22 05:10:05;;;;;;;4.07;3.63;;;8.20;99.90;;;;;;5031108;28;20899;-72
2024/03/22 05:12:31;;;;;;;5.30;4.22;;;8.30;99.90;;;;;;5030799;28;20742;-72
2024/03/22 05:14:59;;;;;;;8.67;5.00;;;8.30;99.90;;;;;;5031067;28;20274;-72
2024/03/22 05:17:25;;;;;;;5.18;4.28;;;8.30;99.90;;;;;;5031410;28;20837;-72
2024/03/22 05:19:52;;;;;;;4.20;3.77;;;8.30;99.90;;;;;;5029833;28;20207;-73
2024/03/22 05:22:20;;;;;;;5.95;5.32;;;8.30;99.90;;;;;;5031005;28;20279;-72
2024/03/22 05:24:46;;;;;;;5.70;4.85;;;8.30;99.90;;;;;;5031394;28;20315;-73
2024/03/22 05:27:12;;;;;;;4.80;4.13;;;8.30;99.90;;;;;;5031456;28;20224;-73
2024/03/22 05:29:39;;;;;;;6.30;4.13;;;8.30;99.90;;;;;;5031046;28;20212;-73
2024/03/22 05:32:07;;;;;;;4.68;3.97;;;8.30;99.90;;;;;;5030593;28;20483;-72
2024/03/22 05:34:33;;;;;;;11.70;4.53;;;8.30;99.90;;;;;;5031193;28;20209;-72
2024/03/22 05:36:59;;;;;;;5.65;4.70;;;8.30;99.90;;;;;;5030902;28;20709;-72
2024/03/22 05:39:26;;;;;;;7.43;4.60;;;8.30;99.90;;;;;;5031200;28;20204;-73
2024/03/22 05:41:51;;;;;;;6.38;5.13;;;8.30;99.90;;;;;;5030286;28;20717;-72
2024/03/22 05:44:19;;;;;;;5.13;4.20;;;8.30;99.90;;;;;;5031001;28;20225;-72
2024/03/22 05:46:45;;;;;;;8.00;4.40;;;8.30;99.90;;;;;;5030982;28;20213;-73
2024/03/22 05:49:13;;;;;;;5.47;3.90;;;8.30;99.90;;;;;;5031004;28;20205;-72
2024/03/22 05:51:39;;;;;;;5.30;3.75;;;8.30;99.90;;;;;;5030483;28;20247;-72
2024/03/22 05:54:06;;;;;;;5.83;4.57;;;8.30;99.90;;;;;;5030965;28;20216;-72
2024/03/22 05:56:32;;;;;;;4.65;4.00;;;8.20;99.90;;;;;;5031055;28;20304;-72
2024/03/22 05:58:59;;;;;;;4.27;3.77;;;8.20;99.90;;;;;;5030707;28;20291;-72
2024/03/22 06:01:25;;;;;;;4.43;3.63;;;8.10;99.90;;;;;;5030939;28;20212;-72
2024/03/22 06:03:51;;;;;;;6.27;4.07;;;8.10;99.90;;;;;;5030458;28;20211;-73
2024/03/22 06:06:19;;;;;;;5.80;4.40;;;8.10;99.90;;;;;;5030722;28;20235;-72
2024/03/22 06:08:45;;;;;;;4.78;3.95;;;8.00;99.90;;;;;;5030672;28;20225;-73
2024/03/22 06:11:11;;;;;;;8.00;4.82;;;8.10;99.90;;;;;;5030547;28;20241;-72
2024/03/22 06:13:38;;;;;;;7.40;4.30;;;8.10;99.90;;;;;;5030438;28;20251;-72
2024/03/22 06:16:04;;;;;;;6.43;4.13;;;8.10;99.90;;;;;;5030529;28;20202;-72
2024/03/22 06:18:31;;;;;;;6.55;4.07;;;8.10;99.90;;;;;;5030776;28;20208;-72
2024/03/22 06:20:57;;;;;;;6.20;4.10;;;8.10;99.90;;;;;;5030219;28;20214;-72
2024/03/22 06:23:25;;;;;;;5.30;3.70;;;8.20;99.90;;;;;;5030575;28;20235;-72
2024/03/22 06:25:54;;;;;;;4.95;3.90;;;8.30;99.90;;;;;;5030565;28;20280;-72
2024/03/22 06:28:21;;;;;;;6.45;4.32;;;8.40;99.90;;;;;;5030570;28;20208;-72
2024/03/22 06:30:47;;;;;;;5.05;3.90;;;8.50;99.90;;;;;;5029769;28;20682;-73
2024/03/22 06:33:14;;;;;;;6.50;4.93;;;8.70;99.90;;;;;;5040896;28;20316;-73
2024/03/22 06:35:40;;;;;;;16.02;5.65;;;8.70;99.90;;;;;;5054266;28;20200;-72
2024/03/22 06:38:07;;;;;;;6.85;4.38;;;8.80;99.90;;;;;;5054050;28;20586;-72
2024/03/22 06:40:35;;;;;;;5.50;4.38;;;8.90;99.90;;;;;;5054060;28;20213;-72
2024/03/22 06:43:01;;;;;;;8.10;4.75;;;9.00;99.90;;;;;;5053588;28;20259;-72
2024/03/22 06:45:27;;;;;;;6.95;4.97;;;9.20;99.90;;;;;;5054175;28;20232;-73
2024/03/22 06:47:54;;;;;;;6.87;4.47;;;9.30;99.90;;;;;;5045097;28;20193;-72
2024/03/22 06:50:24;;;;;;;6.72;5.10;;;9.40;99.90;;;;;;5042667;28;20798;-73
2024/03/22 06:52:51;;;;;;;5.80;3.80;;;9.50;99.90;;;;;;5035405;28;20256;-72
2024/03/22 06:55:17;;;;;;;5.00;4.38;;;9.80;99.90;;;;;;5030592;28;20717;-72
2024/03/22 06:57:47;;;;;;;7.90;4.70;;;9.90;99.90;;;;;;5032683;28;20329;-73
2024/03/22 07:00:13;;;;;;;7.13;4.65;;;10.20;99.90;;;;;;5031475;28;20312;-72
2024/03/22 07:02:40;;;;;;;4.50;4.10;;;10.40;99.90;;;;;;5031402;28;20218;-72
2024/03/22 07:05:07;;;;;;;7.00;4.20;;;10.60;99.90;;;;;;5031927;28;20308;-73
2024/03/22 07:07:33;;;;;;;4.78;4.20;;;10.80;99.90;;;;;;5033192;28;20275;-73
2024/03/22 07:09:59;;;;;;;8.05;4.03;;;11.00;99.90;;;;;;5033349;28;20221;-73
2024/03/22 07:12:26;;;;;;;7.10;4.40;;;11.20;99.90;;;;;;5033020;28;20225;-73
2024/03/22 07:14:53;;;;;;;6.40;5.25;;;11.40;99.90;;;;;;5033109;28;20225;-73
2024/03/22 07:17:23;;;;;;;5.32;4.25;;;11.60;99.90;;;;;;5033269;28;20213;-72
2024/03/22 07:19:49;;;;;;;6.78;5.22;;;11.70;99.90;;;;;;5033202;28;20267;-72
2024/03/22 07:22:16;;;;;;;8.13;4.73;;;11.90;99.90;;;;;;5033005;28;20221;-73
2024/03/22 07:24:41;;;;;;;5.10;3.80;;;12.10;99.90;;;;;;5026056;28;20868;-72
2024/03/22 07:27:08;;;;;;;6.70;4.50;;;12.40;99.90;;;;;;5053180;28;20473;-73
2024/03/22 07:29:34;;;;;;;4.43;3.93;;;12.80;99.90;;;;;;5053333;28;20303;-72
2024/03/22 07:32:03;;;;;;;6.63;4.23;;;13.10;99.90;;;;;;5052591;28;20590;-73
2024/03/22 07:34:29;;;;;;;8.27;4.60;;;13.30;99.90;;;;;;5053313;28;20292;-73
2024/03/22 07:36:56;;;;;;;5.50;4.20;;;13.50;99.90;;;;;;5053075;28;20463;-73
2024/03/22 07:39:21;;;;;;;8.20;4.60;;;13.80;99.90;;;;;;5052927;28;20464;-72
2024/03/22 07:41:48;;;;;;;4.57;4.10;;;14.20;99.90;;;;;;5051985;28;20866;-73
2024/03/22 07:44:14;;;;;;;4.20;3.80;;;14.30;99.90;;;;;;5052356;28;20209;-72
2024/03/22 07:46:41;;;;;;;6.67;3.90;;;14.50;99.90;;;;;;5052768;28;20487;-72
2024/03/22 07:49:08;;;;;;;4.70;4.03;;;15.10;99.90;;;;;;5052665;28;20209;-73
2024/03/22 07:51:34;;;;;;;5.90;3.73;;;15.20;99.90;;;;;;5052374;28;20793;-73
2024/03/22 07:54:00;;;;;;;4.33;3.93;;;15.40;99.90;;;;;;5052463;28;20464;-73
2024/03/22 07:56:28;;;;;;;5.17;3.80;;;16.00;99.90;;;;;;5052785;28;20466;-73
2024/03/22 07:58:53;;;;;;;3.83;3.43;;;16.20;99.90;;;;;;5052616;28;20550;-73
2024/03/22 08:01:20;;;;;;;5.70;4.37;;;16.20;99.90;;;;;;5052258;28;20571;-74
2024/03/22 08:03:46;;;;;;;4.83;3.70;;;16.50;99.90;;;;;;5052245;28;20209;-73
2024/03/22 08:06:14;;;;;;;4.30;3.80;;;17.00;99.90;;;;;;5052340;28;20498;-73
2024/03/22 08:08:40;;;;;;;4.50;4.10;;;17.60;99.90;;;;;;5046367;28;20198;-73
2024/03/22 08:11:06;;;;;;;5.53;4.27;;;17.30;99.90;;;;;;5052289;28;20555;-73
2024/03/22 08:13:32;;;;;;;5.43;3.77;;;17.30;99.90;;;;;;5052194;28;20228;-73
2024/03/22 08:15:59;;;;;;;4.43;3.80;;;17.90;99.90;;;;;;5052348;28;20472;-73
2024/03/22 08:18:24;;;;;;;4.33;3.90;;;18.60;99.90;;;;;;5052099;28;20205;-73
2024/03/22 08:20:51;;;;;;;4.67;3.27;;;18.90;99.90;;;;;;5052035;28;20486;-73
2024/03/22 08:23:20;;;;;;;5.13;3.23;;;19.30;99.90;;;;;;5051708;28;20228;-73
2024/03/22 08:25:46;;;;;;;3.80;3.40;;;19.60;99.90;;;;;;5052131;28;20491;-73
2024/03/22 08:28:13;;;;;;;4.97;3.90;;;20.10;99.90;;;;;;5042159;28;20466;-73
2024/03/22 08:30:40;;;;;;;3.50;2.97;;;20.20;99.90;;;;;;5041224;28;20899;-72
2024/03/22 08:33:06;;;;;;;4.63;3.83;;;20.30;99.90;;;;;;5022258;28;20994;-73
2024/03/22 08:35:33;;;;;;;3.90;3.40;;;20.50;99.90;;;;;;5044200;28;20460;-74
2024/03/22 08:37:58;;;;;;;3.73;3.37;;;21.70;99.90;;;;;;5035772;28;20461;-73
2024/03/22 08:40:26;;;;;;;4.10;3.70;;;22.90;99.90;;;;;;5031159;28;20483;-73
2024/03/22 08:42:52;;;;;;;5.40;3.63;;;23.50;98.30;;;;;;5027688;28;20233;-73
2024/03/22 08:45:19;;;;;;;3.90;3.60;;;23.40;97.80;;;;;;5031305;28;21072;-73
2024/03/22 08:47:45;;;;;;;3.53;3.23;;;22.50;97.10;;;;;;5028024;28;20202;-73
2024/03/22 08:50:12;;;;;;;6.80;3.70;;;21.60;97.90;;;;;;5026325;28;20465;-73
2024/03/22 08:52:38;;;;;;;3.80;3.40;;;21.10;98.40;;;;;;5032742;28;20473;-73
2024/03/22 08:55:06;;;;;;;6.13;3.97;;;20.90;98.30;;;;;;5030976;28;20479;-73
2024/03/22 08:57:33;;;;;;;5.00;3.50;;;20.70;98.00;;;;;;5028473;28;20249;-72
2024/03/22 09:00:00;;;;;;;3.27;2.97;;;20.70;98.10;;;;;;5030913;28;20563;-73
2024/03/22 09:02:26;;;;;;;4.00;3.43;;;20.30;98.20;;;;;;5029385;28;20845;-73
2024/03/22 09:04:54;;;;;;;4.47;2.83;;;20.10;98.10;;;;;;5031033;28;20461;-73
2024/03/22 09:07:20;;;;;;;5.10;3.43;;;20.10;98.30;;;;;;5028091;28;20515;-73
2024/03/22 09:09:46;;;;;;;5.77;3.43;;;20.10;98.30;;;;;;5030936;28;20460;-73
2024/03/22 09:12:12;;;;;;;4.33;3.60;;;20.20;97.90;;;;;;5024679;28;20476;-73
2024/03/22 09:14:40;;;;;;;4.27;3.87;;;20.30;98.50;;;;;;5030422;28;20476;-73
2024/03/22 09:17:07;;;;;;;4.43;3.73;;;20.40;98.00;;;;;;5029384;28;20197;-73
2024/03/22 09:19:33;;;;;;;6.80;2.90;;;20.30;98.10;;;;;;5030557;28;20539;-73
2024/03/22 09:21:59;;;;;;;2.77;2.53;;;20.60;96.90;;;;;;5025131;28;20473;-73
2024/03/22 09:24:26;;;;;;;7.40;2.60;;;21.00;94.30;;;;;;5030133;28;20461;-73
2024/03/22 09:26:53;;;;;;;4.90;2.30;;;21.60;91.80;;;;;;5032211;28;20310;-73
2024/03/22 09:29:20;;;;;;;4.77;2.60;;;21.90;91.30;;;;;;5032419;28;20999;-73
2024/03/22 09:31:47;;;;;;;3.27;2.43;;;22.50;90.60;;;;;;5031670;28;20534;-73
2024/03/22 09:34:15;;;;;;;2.83;2.17;;;22.30;91.10;;;;;;5032431;28;20472;-73
2024/03/22 09:36:43;;;;;;;3.20;2.73;;;23.00;90.30;;;;;;5031490;28;20475;-73
2024/03/22 09:39:11;;;;;;;3.40;2.47;;;23.40;90.70;;;;;;5031969;28;20800;-73
2024/03/22 09:41:42;;;;;;;3.97;2.70;;;24.00;91.20;;;;;;5030904;28;20535;-73
2024/03/22 09:44:15;;;;;;;2.87;2.40;;;25.20;92.10;;;;;;5032186;28;20845;-73
2024/03/22 09:46:42;;;;;;;4.03;3.33;;;26.60;90.20;;;;;;5032086;28;20520;-73
2024/03/22 09:49:11;;;;;;;2.83;2.43;;;27.60;84.70;;;;;;5031698;28;21027;-73
2024/03/22 09:51:37;;;;;;;3.53;2.70;;;27.80;85.50;;;;;;5030560;28;20487;-73
2024/03/22 09:54:05;;;;;;;3.43;3.13;;;27.20;85.00;;;;;;5032561;28;20477;-73
2024/03/22 09:56:31;;;;;;;3.40;2.60;;;26.80;87.00;;;;;;5024102;28;20492;-73
2024/03/22 09:58:58;;;;;;;2.60;2.23;;;26.30;88.20;;;;;;5030670;28;20467;-73
2024/03/22 10:01:25;;;;;;;3.00;2.70;;;26.30;86.00;;;;;;5030265;28;20471;-73
2024/03/22 10:03:53;;;;;;;3.50;2.80;;;26.40;86.50;;;;;;5031181;28;20494;-73
2024/03/22 10:06:20;;;;;;;4.17;2.87;;;26.40;85.00;;;;;;5022922;28;20448;-73
2024/03/22 10:08:47;;;;;;;2.83;2.63;;;26.60;84.80;;;;;;5034781;28;20838;-73
2024/03/22 10:11:13;;;;;;;2.57;2.37;;;26.90;84.70;;;;;;5034303;28;20456;-73
2024/03/22 10:13:40;;;;;;;4.13;3.20;;;27.60;83.90;;;;;;5031567;28;20463;-73
2024/03/22 10:16:07;;;;;;;3.67;3.37;;;27.80;82.30;;;;;;5033106;28;20492;-73
2024/03/22 10:18:34;;;;;;;3.50;2.90;;;27.40;82.60;;;;;;5034308;28;20464;-73
2024/03/22 10:21:01;;;;;;;4.33;2.60;;;26.60;84.50;;;;;;5028823;28;20461;-73
2024/03/22 10:23:30;;;;;;;3.27;2.90;;;25.90;84.50;;;;;;5042038;28;20486;-73
2024/03/22 10:25:56;;;;;;;3.60;3.20;;;25.50;86.40;;;;;;5050579;28;20474;-73
2024/03/22 10:28:24;;;;;;;3.37;3.07;;;25.10;87.20;;;;;;5033684;28;20526;-73
2024/03/22 10:30:51;;;;;;;3.50;2.90;;;24.70;84.60;;;;;;5024250;28;20457;-73
2024/03/22 10:33:19;;;;;;;3.03;2.60;;;24.10;85.60;;;;;;5034510;28;20480;-73
2024/03/22 10:35:46;;;;;;;4.97;2.90;;;23.90;86.60;;;;;;5032593;28;20488;-73
2024/03/22 10:38:22;;;;;;;3.40;3.10;;;24.10;87.30;;;;;;5028757;28;20469;-74
2024/03/22 10:40:50;;;;;;;5.23;4.10;;;24.50;89.00;;;;;;5050338;28;20467;-73
2024/03/22 10:43:18;;;;;;;4.13;3.43;;;24.90;86.60;;;;;;5034843;28;21110;-73
2024/03/22 10:45:48;;;;;;;4.10;3.70;;;25.20;87.40;;;;;;5035339;28;20471;-73
2024/03/22 10:48:25;;;;;;;3.70;3.30;;;25.20;84.30;;;;;;5030794;28;20457;-74
2024/03/22 10:50:55;;;;;;;4.53;3.97;;;25.10;87.10;;;;;;5035677;28;20465;-73
2024/03/22 10:53:35;;;;;;;4.90;3.03;;;25.10;88.50;;;;;;5040657;28;20488;-73
2024/03/22 10:56:06;;;;;;;3.43;3.17;;;25.00;86.60;;;;;;5035019;28;20486;-74
2024/03/22 10:58:34;;;;;;;4.60;3.20;;;25.10;88.60;;;;;;5038712;28;20492;-74
2024/03/22 11:01:00;;;;;;;4.90;4.00;;;25.40;87.70;;;;;;5034939;28;20464;-74
2024/03/22 11:03:30;;;;;;;3.33;3.03;;;26.10;85.00;;;;;;5041153;28;20550;-74
2024/03/22 11:06:07;;;;;;;3.53;3.13;;;25.80;84.40;;;;;;5027082;28;20468;-73
2024/03/22 11:08:34;;;;;;;3.10;2.83;;;26.50;84.60;;;;;;5039065;28;20464;-73
2024/03/22 11:11:10;;;;;;;2.40;2.20;;;27.70;84.10;;;;;;5028793;28;20457;-73
2024/03/22 11:13:37;;;;;;;3.23;2.93;;;28.70;82.20;;;;;;5032538;28;20495;-74
2024/03/22 11:16:03;;;;;;;2.63;2.03;;;29.10;79.20;;;;;;5029281;28;20484;-73
2024/03/22 11:18:30;;;;;;;2.87;2.00;;;29.30;78.60;;;;;;5031680;28;20471;-73
2024/03/22 11:20:56;;;;;;;2.63;2.40;;;29.30;76.80;;;;;;5029851;28;20961;-73
2024/03/22 11:23:22;;;;;;;4.03;2.60;;;29.20;75.70;;;;;;5033114;28;20487;-73
2024/03/22 11:25:48;;;;;;;3.00;2.60;;;29.00;75.90;;;;;;5036931;28;20456;-73
2024/03/22 11:28:17;;;;;;;2.43;2.20;;;28.70;78.50;;;;;;5032965;28;20543;-73
2024/03/22 11:30:43;;;;;;;2.57;2.37;;;28.70;79.60;;;;;;5029272;28;20211;-74
2024/03/22 11:33:11;;;;;;;6.40;2.57;;;29.10;78.70;;;;;;5033109;28;20863;-74
2024/03/22 11:35:36;;;;;;;4.67;2.97;;;29.50;77.60;;;;;;5029513;28;20219;-74
2024/03/22 11:38:04;;;;;;;2.60;2.40;;;29.40;77.70;;;;;;5032740;28;20467;-74
2024/03/22 11:40:31;;;;;;;2.13;1.93;;;29.40;76.40;;;;;;5030396;28;20277;-74
2024/03/22 11:42:58;;;;;;;1.83;1.70;;;29.90;75.40;;;;;;5031777;28;20560;-74
2024/03/22 11:45:26;;;;;;;3.73;2.47;;;30.30;73.80;;;;;;5032839;28;20551;-74
2024/03/22 11:47:53;;;;;;;2.13;1.90;;;30.60;75.70;;;;;;5032524;28;20469;-74
2024/03/22 11:50:19;;;;;;;2.57;2.37;;;30.00;74.20;;;;;;5029596;28;20471;-74
2024/03/22 11:52:47;;;;;;;2.67;1.90;;;29.50;76.50;;;;;;5052125;28;20479;-74
2024/03/22 11:55:14;;;;;;;2.33;2.13;;;29.20;75.20;;;;;;5052534;28;20255;-74
2024/03/22 11:57:41;;;;;;;3.13;2.30;;;29.10;75.90;;;;;;5052108;28;20472;-74
2024/03/22 12:00:17;;;;;;;4.13;2.20;;;28.80;75.90;;;;;;5053492;28;20460;-74
2024/03/22 12:02:46;;;;;;;2.30;1.77;;;28.40;76.00;;;;;;5052390;28;20482;-73
2024/03/22 12:05:12;;;;;;;2.20;2.00;;;27.40;76.40;;;;;;5052528;28;20499;-74
2024/03/22 12:07:41;;;;;;;3.53;3.23;;;27.00;79.70;;;;;;5040188;28;20836;-74
2024/03/22 12:10:08;;;;;;;2.60;2.40;;;26.70;78.20;;;;;;5052164;28;20519;-74
2024/03/22 12:12:34;;;;;;;2.60;2.00;;;26.00;78.60;;;;;;5052178;28;20549;-74
2024/03/22 12:15:00;;;;;;;4.00;2.03;;;25.60;80.00;;;;;;5050354;28;20459;-74
2024/03/22 12:17:27;;;;;;;2.40;1.80;;;25.20;81.00;;;;;;5047388;28;20833;-73
2024/03/22 12:19:56;;;;;;;2.43;2.10;;;24.80;81.10;;;;;;5051301;28;20296;-74
2024/03/22 12:22:22;;;;;;;2.60;2.10;;;24.60;80.40;;;;;;5051698;28;20483;-74
2024/03/22 12:24:49;;;;;;;4.50;2.17;;;24.30;82.70;;;;;;5051769;28;20478;-74
2024/03/22 12:27:14;;;;;;;2.50;2.30;;;24.00;83.80;;;;;;5046693;28;20938;-74
2024/03/22 12:29:41;;;;;;;3.33;2.13;;;23.80;84.60;;;;;;5031099;28;20471;-74
2024/03/22 12:32:08;;;;;;;2.80;2.40;;;23.80;83.50;;;;;;5031424;28;20230;-73
2024/03/22 12:34:34;;;;;;;2.70;2.40;;;23.20;82.40;;;;;;5032358;28;20961;-73
2024/03/22 12:37:02;;;;;;;3.73;2.20;;;22.60;83.60;;;;;;5032146;28;20835;-73
2024/03/22 12:39:29;;;;;;;3.00;2.23;;;22.30;84.90;;;;;;5031991;28;20555;-73
2024/03/22 12:41:55;;;;;;;2.37;2.17;;;22.20;83.90;;;;;;5031646;28;20507;-73
2024/03/22 12:44:21;;;;;;;2.60;2.03;;;22.30;84.40;;;;;;5032064;28;20870;-73
2024/03/22 12:46:48;;;;;;;2.73;2.40;;;23.00;84.70;;;;;;5032077;28;20670;-73
2024/03/22 12:49:14;;;;;;;3.90;2.57;;;23.90;83.10;;;;;;5032145;28;20476;-73
2024/03/22 12:51:40;;;;;;;1.97;1.87;;;24.90;83.30;;;;;;5031173;28;20493;-73